sensor_id;sensor_type;location;lat;lon;timestamp;P1;durP1;ratioP1;P2;durP2;ratioP2
78346;SDS011;67803;41.330;69.282;2024-03-17T00:00:47;17.23;;;3.80;;
78346;SDS011;67803;41.330;69.282;2024-03-17T00:03:17;18.13;;;3.92;;
78346;SDS011;67803;41.330;69.282;2024-03-17T00:05:48;17.17;;;3.70;;
78346;SDS011;67803;41.330;69.282;2024-03-17T00:08:19;9.50;;;3.35;;
78346;SDS011;67803;41.330;69.282;2024-03-17T00:10:51;12.05;;;3.40;;
78346;SDS011;67803;41.330;69.282;2024-03-17T00:13:23;14.43;;;3.25;;
78346;SDS011;67803;41.330;69.282;2024-03-17T00:15:53;10.80;;;3.30;;
78346;SDS011;67803;41.330;69.282;2024-03-17T00:18:24;16.25;;;3.08;;
78346;SDS011;67803;41.330;69.282;2024-03-17T00:20:56;9.10;;;2.95;;
78346;SDS011;67803;41.330;69.282;2024-03-17T00:23:26;17.08;;;3.75;;
78346;SDS011;67803;41.330;69.282;2024-03-17T00:25:58;15.25;;;3.30;;
78346;SDS011;67803;41.330;69.282;2024-03-17T00:28:28;14.88;;;4.95;;
78346;SDS011;67803;41.330;69.282;2024-03-17T00:30:59;12.10;;;3.47;;
78346;SDS011;67803;41.330;69.282;2024-03-17T00:33:29;13.05;;;3.10;;
78346;SDS011;67803;41.330;69.282;2024-03-17T00:36:00;11.85;;;3.67;;
78346;SDS011;67803;41.330;69.282;2024-03-17T00:38:31;9.52;;;3.03;;
78346;SDS011;67803;41.330;69.282;2024-03-17T00:41:04;14.60;;;4.43;;
78346;SDS011;67803;41.330;69.282;2024-03-17T00:43:36;20.88;;;4.22;;
78346;SDS011;67803;41.330;69.282;2024-03-17T00:46:07;14.52;;;3.50;;
78346;SDS011;67803;41.330;69.282;2024-03-17T00:48:38;18.27;;;3.67;;
78346;SDS011;67803;41.330;69.282;2024-03-17T00:51:09;11.70;;;3.85;;
78346;SDS011;67803;41.330;69.282;2024-03-17T00:53:40;16.25;;;3.97;;
78346;SDS011;67803;41.330;69.282;2024-03-17T00:56:11;8.52;;;2.97;;
78346;SDS011;67803;41.330;69.282;2024-03-17T00:58:41;12.63;;;4.60;;
78346;SDS011;67803;41.330;69.282;2024-03-17T01:01:12;18.55;;;4.10;;
78346;SDS011;67803;41.330;69.282;2024-03-17T01:03:43;16.67;;;3.55;;
78346;SDS011;67803;41.330;69.282;2024-03-17T01:06:14;12.68;;;3.30;;
78346;SDS011;67803;41.330;69.282;2024-03-17T01:08:44;13.63;;;3.58;;
78346;SDS011;67803;41.330;69.282;2024-03-17T01:11:15;14.18;;;3.60;;
78346;SDS011;67803;41.330;69.282;2024-03-17T01:13:47;16.85;;;4.65;;
78346;SDS011;67803;41.330;69.282;2024-03-17T01:16:18;15.85;;;4.50;;
78346;SDS011;67803;41.330;69.282;2024-03-17T01:18:48;14.80;;;3.95;;
78346;SDS011;67803;41.330;69.282;2024-03-17T01:21:20;16.73;;;3.72;;
78346;SDS011;67803;41.330;69.282;2024-03-17T01:23:50;14.98;;;3.92;;
78346;SDS011;67803;41.330;69.282;2024-03-17T01:26:21;14.23;;;3.40;;
78346;SDS011;67803;41.330;69.282;2024-03-17T01:28:51;12.68;;;3.78;;
78346;SDS011;67803;41.330;69.282;2024-03-17T01:31:22;18.27;;;4.95;;
78346;SDS011;67803;41.330;69.282;2024-03-17T01:33:53;14.70;;;4.00;;
78346;SDS011;67803;41.330;69.282;2024-03-17T01:36:23;16.05;;;3.85;;
78346;SDS011;67803;41.330;69.282;2024-03-17T01:38:54;17.75;;;3.47;;
78346;SDS011;67803;41.330;69.282;2024-03-17T01:41:24;12.52;;;3.58;;
78346;SDS011;67803;41.330;69.282;2024-03-17T01:43:55;14.55;;;3.55;;
78346;SDS011;67803;41.330;69.282;2024-03-17T01:46:26;21.90;;;3.90;;
78346;SDS011;67803;41.330;69.282;2024-03-17T01:48:57;20.83;;;4.65;;
78346;SDS011;67803;41.330;69.282;2024-03-17T01:51:28;19.38;;;4.50;;
78346;SDS011;67803;41.330;69.282;2024-03-17T01:53:59;13.55;;;3.58;;
78346;SDS011;67803;41.330;69.282;2024-03-17T01:56:29;13.77;;;3.67;;
78346;SDS011;67803;41.330;69.282;2024-03-17T01:59:00;23.50;;;4.40;;
78346;SDS011;67803;41.330;69.282;2024-03-17T02:01:31;17.77;;;3.55;;
78346;SDS011;67803;41.330;69.282;2024-03-17T02:04:02;21.17;;;4.88;;
78346;SDS011;67803;41.330;69.282;2024-03-17T02:06:33;19.40;;;3.70;;
78346;SDS011;67803;41.330;69.282;2024-03-17T02:09:03;25.67;;;4.53;;
78346;SDS011;67803;41.330;69.282;2024-03-17T02:11:34;28.60;;;4.55;;
78346;SDS011;67803;41.330;69.282;2024-03-17T02:14:05;18.05;;;3.70;;
78346;SDS011;67803;41.330;69.282;2024-03-17T02:16:37;14.23;;;3.60;;
78346;SDS011;67803;41.330;69.282;2024-03-17T02:19:08;15.95;;;3.83;;
78346;SDS011;67803;41.330;69.282;2024-03-17T02:21:40;25.88;;;4.38;;
78346;SDS011;67803;41.330;69.282;2024-03-17T02:24:10;23.90;;;5.00;;
78346;SDS011;67803;41.330;69.282;2024-03-17T02:26:41;28.48;;;5.93;;
78346;SDS011;67803;41.330;69.282;2024-03-17T02:29:11;34.00;;;5.00;;
78346;SDS011;67803;41.330;69.282;2024-03-17T02:31:42;25.70;;;4.72;;
78346;SDS011;67803;41.330;69.282;2024-03-17T02:34:12;17.98;;;4.30;;
78346;SDS011;67803;41.330;69.282;2024-03-17T02:36:43;34.88;;;5.13;;
78346;SDS011;67803;41.330;69.282;2024-03-17T02:39:14;22.50;;;4.90;;
78346;SDS011;67803;41.330;69.282;2024-03-17T02:42:03;30.60;;;5.95;;
78346;SDS011;67803;41.330;69.282;2024-03-17T02:44:35;15.73;;;5.07;;
78346;SDS011;67803;41.330;69.282;2024-03-17T02:47:06;14.57;;;3.40;;
78346;SDS011;67803;41.330;69.282;2024-03-17T02:49:40;16.90;;;3.60;;
78346;SDS011;67803;41.330;69.282;2024-03-17T02:52:13;10.65;;;3.03;;
78346;SDS011;67803;41.330;69.282;2024-03-17T02:54:44;16.55;;;4.07;;
78346;SDS011;67803;41.330;69.282;2024-03-17T02:57:15;12.48;;;3.25;;
78346;SDS011;67803;41.330;69.282;2024-03-17T02:59:46;11.48;;;3.65;;
78346;SDS011;67803;41.330;69.282;2024-03-17T03:02:17;12.65;;;3.20;;
78346;SDS011;67803;41.330;69.282;2024-03-17T03:04:48;10.43;;;3.53;;
78346;SDS011;67803;41.330;69.282;2024-03-17T03:07:18;13.27;;;3.50;;
78346;SDS011;67803;41.330;69.282;2024-03-17T03:09:50;9.63;;;3.70;;
78346;SDS011;67803;41.330;69.282;2024-03-17T03:12:21;9.90;;;3.70;;
78346;SDS011;67803;41.330;69.282;2024-03-17T03:14:51;9.43;;;2.90;;
78346;SDS011;67803;41.330;69.282;2024-03-17T03:17:22;10.95;;;3.45;;
78346;SDS011;67803;41.330;69.282;2024-03-17T03:19:54;5.97;;;3.10;;
78346;SDS011;67803;41.330;69.282;2024-03-17T03:22:25;7.43;;;3.25;;
78346;SDS011;67803;41.330;69.282;2024-03-17T03:24:56;5.85;;;3.10;;
78346;SDS011;67803;41.330;69.282;2024-03-17T03:27:28;8.73;;;3.20;;
78346;SDS011;67803;41.330;69.282;2024-03-17T03:29:58;8.30;;;3.15;;
78346;SDS011;67803;41.330;69.282;2024-03-17T03:32:30;9.50;;;3.45;;
78346;SDS011;67803;41.330;69.282;2024-03-17T03:35:00;31.42;;;5.05;;
78346;SDS011;67803;41.330;69.282;2024-03-17T03:37:31;16.50;;;4.80;;
78346;SDS011;67803;41.330;69.282;2024-03-17T03:40:02;11.10;;;3.45;;
78346;SDS011;67803;41.330;69.282;2024-03-17T03:42:46;9.75;;;3.40;;
78346;SDS011;67803;41.330;69.282;2024-03-17T03:45:17;9.25;;;3.47;;
78346;SDS011;67803;41.330;69.282;2024-03-17T03:47:47;10.98;;;3.83;;
78346;SDS011;67803;41.330;69.282;2024-03-17T03:50:21;12.07;;;3.38;;
78346;SDS011;67803;41.330;69.282;2024-03-17T03:52:53;21.77;;;4.22;;
78346;SDS011;67803;41.330;69.282;2024-03-17T03:55:23;13.82;;;4.28;;
78346;SDS011;67803;41.330;69.282;2024-03-17T03:57:54;17.08;;;3.72;;
78346;SDS011;67803;41.330;69.282;2024-03-17T04:00:25;19.13;;;4.85;;
78346;SDS011;67803;41.330;69.282;2024-03-17T04:05:31;12.63;;;4.85;;
78346;SDS011;67803;41.330;69.282;2024-03-17T04:08:02;8.30;;;4.28;;
78346;SDS011;67803;41.330;69.282;2024-03-17T04:10:33;16.42;;;5.85;;
78346;SDS011;67803;41.330;69.282;2024-03-17T04:13:03;15.13;;;6.38;;
78346;SDS011;67803;41.330;69.282;2024-03-17T04:15:34;15.88;;;7.30;;
78346;SDS011;67803;41.330;69.282;2024-03-17T04:18:05;19.40;;;9.80;;
78346;SDS011;67803;41.330;69.282;2024-03-17T04:20:35;14.07;;;10.05;;
78346;SDS011;67803;41.330;69.282;2024-03-17T04:23:06;16.15;;;9.57;;
78346;SDS011;67803;41.330;69.282;2024-03-17T04:25:36;26.75;;;10.25;;
78346;SDS011;67803;41.330;69.282;2024-03-17T04:28:07;18.38;;;10.35;;
78346;SDS011;67803;41.330;69.282;2024-03-17T04:30:38;19.52;;;9.07;;
78346;SDS011;67803;41.330;69.282;2024-03-17T04:33:09;15.68;;;8.57;;
78346;SDS011;67803;41.330;69.282;2024-03-17T04:35:41;15.43;;;9.60;;
78346;SDS011;67803;41.330;69.282;2024-03-17T04:38:11;39.33;;;10.88;;
78346;SDS011;67803;41.330;69.282;2024-03-17T04:40:44;17.55;;;8.45;;
78346;SDS011;67803;41.330;69.282;2024-03-17T04:43:15;17.85;;;9.10;;
78346;SDS011;67803;41.330;69.282;2024-03-17T04:45:46;12.35;;;8.73;;
78346;SDS011;67803;41.330;69.282;2024-03-17T04:48:18;12.63;;;7.47;;
78346;SDS011;67803;41.330;69.282;2024-03-17T04:50:48;15.48;;;8.23;;
78346;SDS011;67803;41.330;69.282;2024-03-17T04:53:19;27.38;;;8.57;;
78346;SDS011;67803;41.330;69.282;2024-03-17T04:56:03;16.70;;;7.30;;
78346;SDS011;67803;41.330;69.282;2024-03-17T04:58:34;16.02;;;7.22;;
78346;SDS011;67803;41.330;69.282;2024-03-17T05:01:06;13.57;;;7.80;;
78346;SDS011;67803;41.330;69.282;2024-03-17T05:03:36;9.80;;;7.25;;
78346;SDS011;67803;41.330;69.282;2024-03-17T05:06:07;16.42;;;7.28;;
78346;SDS011;67803;41.330;69.282;2024-03-17T05:08:37;14.57;;;6.78;;
78346;SDS011;67803;41.330;69.282;2024-03-17T05:11:08;11.98;;;5.88;;
78346;SDS011;67803;41.330;69.282;2024-03-17T05:13:39;14.13;;;6.35;;
78346;SDS011;67803;41.330;69.282;2024-03-17T05:16:09;14.07;;;6.75;;
78346;SDS011;67803;41.330;69.282;2024-03-17T05:18:40;18.05;;;5.80;;
78346;SDS011;67803;41.330;69.282;2024-03-17T05:21:11;13.70;;;5.65;;
78346;SDS011;67803;41.330;69.282;2024-03-17T05:23:42;12.75;;;6.40;;
78346;SDS011;67803;41.330;69.282;2024-03-17T05:26:13;9.25;;;5.10;;
78346;SDS011;67803;41.330;69.282;2024-03-17T05:28:43;13.10;;;5.53;;
78346;SDS011;67803;41.330;69.282;2024-03-17T05:31:14;16.85;;;6.03;;
78346;SDS011;67803;41.330;69.282;2024-03-17T05:33:48;13.18;;;6.28;;
78346;SDS011;67803;41.330;69.282;2024-03-17T05:36:19;11.05;;;5.43;;
78346;SDS011;67803;41.330;69.282;2024-03-17T05:38:52;10.10;;;5.60;;
78346;SDS011;67803;41.330;69.282;2024-03-17T05:41:23;12.43;;;7.10;;
78346;SDS011;67803;41.330;69.282;2024-03-17T05:43:56;11.88;;;6.85;;
78346;SDS011;67803;41.330;69.282;2024-03-17T05:46:30;15.07;;;8.15;;
78346;SDS011;67803;41.330;69.282;2024-03-17T05:49:01;12.55;;;7.45;;
78346;SDS011;67803;41.330;69.282;2024-03-17T05:51:33;16.55;;;8.00;;
78346;SDS011;67803;41.330;69.282;2024-03-17T05:54:04;12.80;;;7.22;;
78346;SDS011;67803;41.330;69.282;2024-03-17T05:56:34;11.52;;;7.28;;
78346;SDS011;67803;41.330;69.282;2024-03-17T05:59:05;13.18;;;6.57;;
78346;SDS011;67803;41.330;69.282;2024-03-17T06:01:36;34.05;;;7.03;;
78346;SDS011;67803;41.330;69.282;2024-03-17T06:04:06;15.25;;;6.90;;
78346;SDS011;67803;41.330;69.282;2024-03-17T06:06:37;9.13;;;6.20;;
78346;SDS011;67803;41.330;69.282;2024-03-17T06:09:07;8.38;;;5.57;;
78346;SDS011;67803;41.330;69.282;2024-03-17T06:11:40;11.63;;;5.90;;
78346;SDS011;67803;41.330;69.282;2024-03-17T06:14:10;11.32;;;6.13;;
78346;SDS011;67803;41.330;69.282;2024-03-17T06:16:42;12.02;;;6.80;;
78346;SDS011;67803;41.330;69.282;2024-03-17T06:19:14;8.88;;;6.65;;
78346;SDS011;67803;41.330;69.282;2024-03-17T06:21:44;10.73;;;6.25;;
78346;SDS011;67803;41.330;69.282;2024-03-17T06:24:18;9.98;;;4.97;;
78346;SDS011;67803;41.330;69.282;2024-03-17T06:26:50;13.82;;;5.85;;
78346;SDS011;67803;41.330;69.282;2024-03-17T06:29:21;9.15;;;5.68;;
78346;SDS011;67803;41.330;69.282;2024-03-17T06:31:51;13.35;;;5.78;;
78346;SDS011;67803;41.330;69.282;2024-03-17T06:34:22;16.23;;;5.80;;
78346;SDS011;67803;41.330;69.282;2024-03-17T06:36:52;11.32;;;6.15;;
78346;SDS011;67803;41.330;69.282;2024-03-17T06:39:23;13.48;;;6.03;;
78346;SDS011;67803;41.330;69.282;2024-03-17T06:41:54;12.55;;;5.78;;
78346;SDS011;67803;41.330;69.282;2024-03-17T06:44:24;10.98;;;5.88;;
78346;SDS011;67803;41.330;69.282;2024-03-17T06:46:57;10.50;;;5.70;;
78346;SDS011;67803;41.330;69.282;2024-03-17T06:49:28;9.07;;;5.75;;
78346;SDS011;67803;41.330;69.282;2024-03-17T06:52:01;9.73;;;5.35;;
78346;SDS011;67803;41.330;69.282;2024-03-17T06:54:31;12.82;;;5.38;;
78346;SDS011;67803;41.330;69.282;2024-03-17T06:57:05;21.50;;;5.70;;
78346;SDS011;67803;41.330;69.282;2024-03-17T06:59:36;8.30;;;5.20;;
78346;SDS011;67803;41.330;69.282;2024-03-17T07:02:07;9.40;;;5.43;;
78346;SDS011;67803;41.330;69.282;2024-03-17T07:04:37;10.73;;;5.63;;
78346;SDS011;67803;41.330;69.282;2024-03-17T07:07:08;14.65;;;6.38;;
78346;SDS011;67803;41.330;69.282;2024-03-17T07:09:39;14.30;;;5.53;;
78346;SDS011;67803;41.330;69.282;2024-03-17T07:12:10;13.10;;;5.50;;
78346;SDS011;67803;41.330;69.282;2024-03-17T07:14:43;16.63;;;6.38;;
78346;SDS011;67803;41.330;69.282;2024-03-17T07:17:14;12.23;;;5.88;;
78346;SDS011;67803;41.330;69.282;2024-03-17T07:19:44;11.32;;;5.88;;
78346;SDS011;67803;41.330;69.282;2024-03-17T07:22:15;13.27;;;5.15;;
78346;SDS011;67803;41.330;69.282;2024-03-17T07:24:45;14.73;;;5.93;;
78346;SDS011;67803;41.330;69.282;2024-03-17T07:27:16;11.18;;;5.95;;
78346;SDS011;67803;41.330;69.282;2024-03-17T07:29:47;18.23;;;6.57;;
78346;SDS011;67803;41.330;69.282;2024-03-17T07:32:17;16.77;;;6.32;;
78346;SDS011;67803;41.330;69.282;2024-03-17T07:34:48;11.75;;;5.50;;
78346;SDS011;67803;41.330;69.282;2024-03-17T07:37:20;22.67;;;5.97;;
78346;SDS011;67803;41.330;69.282;2024-03-17T07:39:50;11.82;;;5.55;;
78346;SDS011;67803;41.330;69.282;2024-03-17T07:42:21;14.88;;;5.15;;
78346;SDS011;67803;41.330;69.282;2024-03-17T07:44:51;11.23;;;4.50;;
78346;SDS011;67803;41.330;69.282;2024-03-17T07:47:22;13.18;;;5.13;;
78346;SDS011;67803;41.330;69.282;2024-03-17T07:49:53;12.70;;;4.97;;
78346;SDS011;67803;41.330;69.282;2024-03-17T07:52:23;14.45;;;4.50;;
78346;SDS011;67803;41.330;69.282;2024-03-17T07:54:54;11.95;;;3.90;;
78346;SDS011;67803;41.330;69.282;2024-03-17T07:57:25;9.70;;;3.92;;
78346;SDS011;67803;41.330;69.282;2024-03-17T07:59:55;15.70;;;4.20;;
78346;SDS011;67803;41.330;69.282;2024-03-17T08:02:26;10.43;;;3.45;;
78346;SDS011;67803;41.330;69.282;2024-03-17T08:04:56;17.48;;;4.35;;
78346;SDS011;67803;41.330;69.282;2024-03-17T08:07:27;15.70;;;3.30;;
78346;SDS011;67803;41.330;69.282;2024-03-17T08:09:58;17.55;;;4.22;;
78346;SDS011;67803;41.330;69.282;2024-03-17T08:12:28;13.65;;;3.33;;
78346;SDS011;67803;41.330;69.282;2024-03-17T08:14:59;134.27;;;13.50;;
78346;SDS011;67803;41.330;69.282;2024-03-17T08:17:30;21.38;;;4.15;;
78346;SDS011;67803;41.330;69.282;2024-03-17T08:20:01;15.68;;;3.47;;
78346;SDS011;67803;41.330;69.282;2024-03-17T08:22:31;12.57;;;3.30;;
78346;SDS011;67803;41.330;69.282;2024-03-17T08:25:02;55.55;;;6.15;;
78346;SDS011;67803;41.330;69.282;2024-03-17T08:27:34;20.25;;;4.50;;
78346;SDS011;67803;41.330;69.282;2024-03-17T08:30:05;9.93;;;3.67;;
78346;SDS011;67803;41.330;69.282;2024-03-17T08:32:36;14.82;;;3.72;;
78346;SDS011;67803;41.330;69.282;2024-03-17T08:35:07;7.20;;;3.40;;
78346;SDS011;67803;41.330;69.282;2024-03-17T08:37:37;15.60;;;3.50;;
78346;SDS011;67803;41.330;69.282;2024-03-17T08:40:08;12.35;;;3.50;;
78346;SDS011;67803;41.330;69.282;2024-03-17T08:42:39;12.68;;;3.20;;
78346;SDS011;67803;41.330;69.282;2024-03-17T08:45:11;63.45;;;8.32;;
78346;SDS011;67803;41.330;69.282;2024-03-17T08:47:41;15.50;;;3.47;;
78346;SDS011;67803;41.330;69.282;2024-03-17T08:50:12;13.70;;;3.72;;
78346;SDS011;67803;41.330;69.282;2024-03-17T08:52:42;11.63;;;3.83;;
78346;SDS011;67803;41.330;69.282;2024-03-17T08:55:13;10.75;;;4.03;;
78346;SDS011;67803;41.330;69.282;2024-03-17T08:57:44;11.80;;;3.22;;
78346;SDS011;67803;41.330;69.282;2024-03-17T09:00:15;14.07;;;4.45;;
78346;SDS011;67803;41.330;69.282;2024-03-17T09:02:45;12.32;;;3.92;;
78346;SDS011;67803;41.330;69.282;2024-03-17T09:05:16;9.02;;;4.20;;
78346;SDS011;67803;41.330;69.282;2024-03-17T09:07:47;12.25;;;3.78;;
78346;SDS011;67803;41.330;69.282;2024-03-17T09:10:17;12.85;;;4.15;;
78346;SDS011;67803;41.330;69.282;2024-03-17T09:12:48;13.50;;;3.60;;
78346;SDS011;67803;41.330;69.282;2024-03-17T09:15:19;16.08;;;3.92;;
78346;SDS011;67803;41.330;69.282;2024-03-17T09:17:50;16.33;;;3.47;;
78346;SDS011;67803;41.330;69.282;2024-03-17T09:20:21;16.23;;;4.07;;
78346;SDS011;67803;41.330;69.282;2024-03-17T09:22:52;9.18;;;3.28;;
78346;SDS011;67803;41.330;69.282;2024-03-17T09:25:22;11.48;;;3.33;;
78346;SDS011;67803;41.330;69.282;2024-03-17T09:27:53;18.42;;;4.55;;
78346;SDS011;67803;41.330;69.282;2024-03-17T09:30:24;20.13;;;5.07;;
78346;SDS011;67803;41.330;69.282;2024-03-17T09:32:54;14.52;;;4.97;;
78346;SDS011;67803;41.330;69.282;2024-03-17T09:37:55;24.33;;;4.93;;
78346;SDS011;67803;41.330;69.282;2024-03-17T09:40:26;14.13;;;4.07;;
78346;SDS011;67803;41.330;69.282;2024-03-17T09:42:56;28.73;;;15.82;;
78346;SDS011;67803;41.330;69.282;2024-03-17T09:45:28;10.43;;;4.18;;
78346;SDS011;67803;41.330;69.282;2024-03-17T09:47:59;13.63;;;3.88;;
78346;SDS011;67803;41.330;69.282;2024-03-17T09:50:29;14.10;;;4.40;;
78346;SDS011;67803;41.330;69.282;2024-03-17T09:53:01;12.13;;;4.10;;
78346;SDS011;67803;41.330;69.282;2024-03-17T09:55:32;13.48;;;4.10;;
78346;SDS011;67803;41.330;69.282;2024-03-17T09:58:03;13.60;;;4.15;;
78346;SDS011;67803;41.330;69.282;2024-03-17T10:00:34;7.45;;;4.03;;
78346;SDS011;67803;41.330;69.282;2024-03-17T10:03:04;10.88;;;4.72;;
78346;SDS011;67803;41.330;69.282;2024-03-17T10:05:35;20.92;;;6.93;;
78346;SDS011;67803;41.330;69.282;2024-03-17T10:08:06;11.18;;;4.28;;
78346;SDS011;67803;41.330;69.282;2024-03-17T10:10:38;10.35;;;4.22;;
78346;SDS011;67803;41.330;69.282;2024-03-17T10:13:11;13.55;;;4.28;;
78346;SDS011;67803;41.330;69.282;2024-03-17T10:15:48;27.77;;;5.95;;
78346;SDS011;67803;41.330;69.282;2024-03-17T10:18:20;9.45;;;3.63;;
78346;SDS011;67803;41.330;69.282;2024-03-17T10:20:52;10.00;;;3.72;;
78346;SDS011;67803;41.330;69.282;2024-03-17T10:25:58;13.50;;;4.45;;
78346;SDS011;67803;41.330;69.282;2024-03-17T10:28:28;11.25;;;3.88;;
78346;SDS011;67803;41.330;69.282;2024-03-17T10:31:00;13.30;;;5.10;;
78346;SDS011;67803;41.330;69.282;2024-03-17T10:33:30;10.93;;;3.95;;
78346;SDS011;67803;41.330;69.282;2024-03-17T10:36:01;29.30;;;5.10;;
78346;SDS011;67803;41.330;69.282;2024-03-17T10:38:32;20.75;;;6.78;;
78346;SDS011;67803;41.330;69.282;2024-03-17T10:41:05;17.42;;;7.32;;
78346;SDS011;67803;41.330;69.282;2024-03-17T10:43:36;14.95;;;8.98;;
78346;SDS011;67803;41.330;69.282;2024-03-17T10:46:08;10.90;;;5.13;;
78346;SDS011;67803;41.330;69.282;2024-03-17T10:48:40;16.33;;;5.15;;
78346;SDS011;67803;41.330;69.282;2024-03-17T10:51:17;22.80;;;10.90;;
78346;SDS011;67803;41.330;69.282;2024-03-17T10:53:48;29.02;;;11.85;;
78346;SDS011;67803;41.330;69.282;2024-03-17T10:56:20;25.55;;;11.40;;
78346;SDS011;67803;41.330;69.282;2024-03-17T10:58:52;25.83;;;13.18;;
78346;SDS011;67803;41.330;69.282;2024-03-17T11:01:27;33.70;;;13.68;;
78346;SDS011;67803;41.330;69.282;2024-03-17T11:03:58;27.77;;;14.05;;
78346;SDS011;67803;41.330;69.282;2024-03-17T11:06:29;27.17;;;12.80;;
78346;SDS011;67803;41.330;69.282;2024-03-17T11:09:00;30.00;;;14.70;;
78346;SDS011;67803;41.330;69.282;2024-03-17T11:11:37;30.83;;;16.20;;
78346;SDS011;67803;41.330;69.282;2024-03-17T11:14:18;30.60;;;13.88;;
78346;SDS011;67803;41.330;69.282;2024-03-17T11:16:49;31.70;;;14.52;;
78346;SDS011;67803;41.330;69.282;2024-03-17T11:19:20;32.97;;;13.05;;
78346;SDS011;67803;41.330;69.282;2024-03-17T11:21:51;25.38;;;13.32;;
78346;SDS011;67803;41.330;69.282;2024-03-17T11:24:22;30.95;;;13.25;;
78346;SDS011;67803;41.330;69.282;2024-03-17T11:26:53;20.13;;;13.30;;
78346;SDS011;67803;41.330;69.282;2024-03-17T11:29:27;24.80;;;14.63;;
78346;SDS011;67803;41.330;69.282;2024-03-17T11:31:58;30.77;;;15.18;;
78346;SDS011;67803;41.330;69.282;2024-03-17T11:36:59;23.10;;;12.98;;
78346;SDS011;67803;41.330;69.282;2024-03-17T11:39:46;20.65;;;12.02;;
78346;SDS011;67803;41.330;69.282;2024-03-17T11:42:19;24.10;;;13.82;;
78346;SDS011;67803;41.330;69.282;2024-03-17T11:44:59;21.58;;;14.38;;
78346;SDS011;67803;41.330;69.282;2024-03-17T11:47:39;25.05;;;14.43;;
78346;SDS011;67803;41.330;69.282;2024-03-17T11:50:10;32.00;;;16.27;;
78346;SDS011;67803;41.330;69.282;2024-03-17T11:55:33;21.42;;;11.20;;
78346;SDS011;67803;41.330;69.282;2024-03-17T11:58:04;24.63;;;11.70;;
78346;SDS011;67803;41.330;69.282;2024-03-17T12:00:35;23.98;;;10.88;;
78346;SDS011;67803;41.330;69.282;2024-03-17T12:03:09;24.40;;;12.05;;
78346;SDS011;67803;41.330;69.282;2024-03-17T12:05:40;27.20;;;14.40;;
78346;SDS011;67803;41.330;69.282;2024-03-17T12:08:19;29.77;;;13.52;;
78346;SDS011;67803;41.330;69.282;2024-03-17T12:10:50;29.75;;;14.35;;
78346;SDS011;67803;41.330;69.282;2024-03-17T12:13:21;24.13;;;14.30;;
78346;SDS011;67803;41.330;69.282;2024-03-17T12:16:09;26.95;;;14.27;;
78346;SDS011;67803;41.330;69.282;2024-03-17T12:18:39;25.27;;;13.88;;
78346;SDS011;67803;41.330;69.282;2024-03-17T12:21:15;29.92;;;13.65;;
78346;SDS011;67803;41.330;69.282;2024-03-17T12:23:46;26.98;;;13.18;;
78346;SDS011;67803;41.330;69.282;2024-03-17T12:26:16;29.20;;;13.73;;
78346;SDS011;67803;41.330;69.282;2024-03-17T12:28:47;31.52;;;14.45;;
78346;SDS011;67803;41.330;69.282;2024-03-17T12:31:20;28.75;;;12.73;;
78346;SDS011;67803;41.330;69.282;2024-03-17T12:33:50;24.88;;;13.15;;
78346;SDS011;67803;41.330;69.282;2024-03-17T12:36:21;28.45;;;13.35;;
78346;SDS011;67803;41.330;69.282;2024-03-17T12:38:54;27.25;;;13.00;;
78346;SDS011;67803;41.330;69.282;2024-03-17T12:41:24;30.10;;;14.45;;
78346;SDS011;67803;41.330;69.282;2024-03-17T12:43:55;32.75;;;13.48;;
78346;SDS011;67803;41.330;69.282;2024-03-17T12:46:27;24.77;;;14.40;;
78346;SDS011;67803;41.330;69.282;2024-03-17T12:48:58;26.80;;;14.52;;
78346;SDS011;67803;41.330;69.282;2024-03-17T12:51:29;25.08;;;13.70;;
78346;SDS011;67803;41.330;69.282;2024-03-17T12:54:12;24.98;;;13.45;;
78346;SDS011;67803;41.330;69.282;2024-03-17T12:56:43;28.85;;;13.20;;
78346;SDS011;67803;41.330;69.282;2024-03-17T12:59:41;33.60;;;13.77;;
78346;SDS011;67803;41.330;69.282;2024-03-17T13:02:30;28.88;;;12.27;;
78346;SDS011;67803;41.330;69.282;2024-03-17T13:07:39;24.90;;;11.63;;
78346;SDS011;67803;41.330;69.282;2024-03-17T13:10:10;20.35;;;10.02;;
78346;SDS011;67803;41.330;69.282;2024-03-17T13:12:40;20.75;;;9.13;;
78346;SDS011;67803;41.330;69.282;2024-03-17T13:15:15;21.90;;;9.50;;
78346;SDS011;67803;41.330;69.282;2024-03-17T13:17:46;22.23;;;10.38;;
78346;SDS011;67803;41.330;69.282;2024-03-17T13:20:17;20.85;;;9.75;;
78346;SDS011;67803;41.330;69.282;2024-03-17T13:22:48;16.33;;;7.70;;
78346;SDS011;67803;41.330;69.282;2024-03-17T13:25:22;21.88;;;6.97;;
78346;SDS011;67803;41.330;69.282;2024-03-17T13:27:54;15.30;;;6.28;;
78346;SDS011;67803;41.330;69.282;2024-03-17T13:30:24;17.35;;;6.40;;
78346;SDS011;67803;41.330;69.282;2024-03-17T13:32:57;16.77;;;6.05;;
78346;SDS011;67803;41.330;69.282;2024-03-17T13:35:35;17.33;;;6.03;;
78346;SDS011;67803;41.330;69.282;2024-03-17T13:38:09;17.95;;;5.72;;
78346;SDS011;67803;41.330;69.282;2024-03-17T13:40:40;11.35;;;4.85;;
78346;SDS011;67803;41.330;69.282;2024-03-17T13:43:12;17.35;;;5.53;;
78346;SDS011;67803;41.330;69.282;2024-03-17T13:45:43;14.48;;;5.13;;
78346;SDS011;67803;41.330;69.282;2024-03-17T13:48:14;15.68;;;5.10;;
78346;SDS011;67803;41.330;69.282;2024-03-17T13:50:44;16.00;;;4.50;;
78346;SDS011;67803;41.330;69.282;2024-03-17T13:53:17;13.40;;;4.97;;
78346;SDS011;67803;41.330;69.282;2024-03-17T13:55:48;14.25;;;5.32;;
78346;SDS011;67803;41.330;69.282;2024-03-17T13:58:19;28.48;;;6.85;;
78346;SDS011;67803;41.330;69.282;2024-03-17T14:00:50;24.85;;;6.80;;
78346;SDS011;67803;41.330;69.282;2024-03-17T14:03:20;14.35;;;5.60;;
78346;SDS011;67803;41.330;69.282;2024-03-17T14:05:51;17.45;;;6.63;;
78346;SDS011;67803;41.330;69.282;2024-03-17T14:08:21;17.25;;;8.20;;
78346;SDS011;67803;41.330;69.282;2024-03-17T14:10:52;20.00;;;7.57;;
78346;SDS011;67803;41.330;69.282;2024-03-17T14:13:22;15.10;;;6.72;;
78346;SDS011;67803;41.330;69.282;2024-03-17T14:15:56;19.75;;;6.70;;
78346;SDS011;67803;41.330;69.282;2024-03-17T14:18:27;17.88;;;7.63;;
78346;SDS011;67803;41.330;69.282;2024-03-17T14:20:58;23.17;;;8.70;;
78346;SDS011;67803;41.330;69.282;2024-03-17T14:23:28;19.30;;;8.48;;
78346;SDS011;67803;41.330;69.282;2024-03-17T14:26:01;19.50;;;7.53;;
78346;SDS011;67803;41.330;69.282;2024-03-17T14:28:31;22.58;;;8.32;;
78346;SDS011;67803;41.330;69.282;2024-03-17T14:31:02;27.38;;;8.18;;
78346;SDS011;67803;41.330;69.282;2024-03-17T14:33:33;19.83;;;8.48;;
78346;SDS011;67803;41.330;69.282;2024-03-17T14:36:03;19.37;;;7.90;;
78346;SDS011;67803;41.330;69.282;2024-03-17T14:38:34;30.95;;;8.75;;
78346;SDS011;67803;41.330;69.282;2024-03-17T14:41:04;18.92;;;8.23;;
78346;SDS011;67803;41.330;69.282;2024-03-17T14:43:36;18.40;;;7.30;;
78346;SDS011;67803;41.330;69.282;2024-03-17T14:46:08;22.50;;;9.50;;
78346;SDS011;67803;41.330;69.282;2024-03-17T14:48:43;19.27;;;8.77;;
78346;SDS011;67803;41.330;69.282;2024-03-17T14:51:13;22.20;;;8.43;;
78346;SDS011;67803;41.330;69.282;2024-03-17T14:53:44;23.77;;;9.73;;
78346;SDS011;67803;41.330;69.282;2024-03-17T14:56:24;22.88;;;8.73;;
78346;SDS011;67803;41.330;69.282;2024-03-17T14:58:55;19.00;;;8.32;;
78346;SDS011;67803;41.330;69.282;2024-03-17T15:01:26;22.75;;;8.43;;